Terminal Aerodrome Forecast
Issued by NWS

Home | Current Version | Previous Version | Text Only | Print | Product List | Glossary On
Versions: 1 2 3 4 5 6 7 8 9 10 11 12 13 14 15 16 17 18
516
FTUS46 KLOX 221740
TAFWJF
TAF
KWJF 221740Z 2218/2318 26020G30KT P6SM BKN100
     FM222000 24025G35KT P6SM BKN150
     FM230400 24017G25KT P6SM BKN150
     FM231000 23015KT P6SM BKN050
     FM231500 26022G27KT P6SM BKN250=

USA.gov is the U.S. government's official web portal to all federal, state and local government web resources and services.